sensor_id;sensor_type;location;lat;lon;timestamp;P1;durP1;ratioP1;P2;durP2;ratioP2
32705;SDS011;19094;50.972;3.538;2023-02-15T00:00:21;119.60;;;56.15;;
32705;SDS011;19094;50.972;3.538;2023-02-15T00:02:47;114.82;;;56.25;;
32705;SDS011;19094;50.972;3.538;2023-02-15T00:05:12;114.07;;;57.10;;
32705;SDS011;19094;50.972;3.538;2023-02-15T00:07:38;120.00;;;56.80;;
32705;SDS011;19094;50.972;3.538;2023-02-15T00:10:04;113.85;;;55.72;;
32705;SDS011;19094;50.972;3.538;2023-02-15T00:12:31;102.95;;;53.72;;
32705;SDS011;19094;50.972;3.538;2023-02-15T00:14:57;113.38;;;56.03;;
32705;SDS011;19094;50.972;3.538;2023-02-15T00:17:23;105.80;;;53.28;;
32705;SDS011;19094;50.972;3.538;2023-02-15T00:19:48;107.88;;;53.53;;
32705;SDS011;19094;50.972;3.538;2023-02-15T00:22:14;100.25;;;51.63;;
32705;SDS011;19094;50.972;3.538;2023-02-15T00:24:40;104.88;;;52.70;;
32705;SDS011;19094;50.972;3.538;2023-02-15T00:27:06;107.72;;;53.63;;
32705;SDS011;19094;50.972;3.538;2023-02-15T00:29:31;94.88;;;48.60;;
32705;SDS011;19094;50.972;3.538;2023-02-15T00:31:57;99.55;;;49.65;;
32705;SDS011;19094;50.972;3.538;2023-02-15T00:34:24;104.28;;;51.88;;
32705;SDS011;19094;50.972;3.538;2023-02-15T00:36:51;100.20;;;50.65;;
32705;SDS011;19094;50.972;3.538;2023-02-15T00:39:17;103.07;;;50.53;;
32705;SDS011;19094;50.972;3.538;2023-02-15T00:41:44;99.72;;;50.72;;
32705;SDS011;19094;50.972;3.538;2023-02-15T00:44:11;97.93;;;49.20;;
32705;SDS011;19094;50.972;3.538;2023-02-15T00:46:37;99.93;;;49.67;;
32705;SDS011;19094;50.972;3.538;2023-02-15T00:49:03;97.03;;;49.47;;
32705;SDS011;19094;50.972;3.538;2023-02-15T00:51:30;96.70;;;49.22;;
32705;SDS011;19094;50.972;3.538;2023-02-15T00:53:56;93.68;;;48.72;;
32705;SDS011;19094;50.972;3.538;2023-02-15T00:56:22;96.90;;;49.45;;
32705;SDS011;19094;50.972;3.538;2023-02-15T00:58:48;95.68;;;49.92;;
32705;SDS011;19094;50.972;3.538;2023-02-15T01:01:15;98.05;;;49.97;;
32705;SDS011;19094;50.972;3.538;2023-02-15T01:03:42;99.25;;;49.45;;
32705;SDS011;19094;50.972;3.538;2023-02-15T01:06:08;97.10;;;49.42;;
32705;SDS011;19094;50.972;3.538;2023-02-15T01:08:35;93.90;;;47.53;;
32705;SDS011;19094;50.972;3.538;2023-02-15T01:11:08;87.70;;;46.42;;
32705;SDS011;19094;50.972;3.538;2023-02-15T01:13:35;81.05;;;43.80;;
32705;SDS011;19094;50.972;3.538;2023-02-15T01:16:02;82.90;;;45.10;;
32705;SDS011;19094;50.972;3.538;2023-02-15T01:18:28;79.97;;;44.33;;
32705;SDS011;19094;50.972;3.538;2023-02-15T01:20:55;80.85;;;43.22;;
32705;SDS011;19094;50.972;3.538;2023-02-15T01:23:20;81.43;;;44.67;;
32705;SDS011;19094;50.972;3.538;2023-02-15T01:25:46;89.32;;;45.17;;
32705;SDS011;19094;50.972;3.538;2023-02-15T01:28:12;77.05;;;43.63;;
32705;SDS011;19094;50.972;3.538;2023-02-15T01:30:38;78.80;;;42.05;;
32705;SDS011;19094;50.972;3.538;2023-02-15T01:33:04;84.45;;;44.58;;
32705;SDS011;19094;50.972;3.538;2023-02-15T01:35:30;91.90;;;46.60;;
32705;SDS011;19094;50.972;3.538;2023-02-15T01:37:56;83.07;;;43.58;;
32705;SDS011;19094;50.972;3.538;2023-02-15T01:40:21;81.32;;;44.53;;
32705;SDS011;19094;50.972;3.538;2023-02-15T01:42:54;82.22;;;44.58;;
32705;SDS011;19094;50.972;3.538;2023-02-15T01:45:25;79.93;;;42.67;;
32705;SDS011;19094;50.972;3.538;2023-02-15T01:50:25;80.50;;;42.72;;
32705;SDS011;19094;50.972;3.538;2023-02-15T01:53:01;90.60;;;45.72;;
32705;SDS011;19094;50.972;3.538;2023-02-15T01:55:31;81.68;;;43.20;;
32705;SDS011;19094;50.972;3.538;2023-02-15T01:58:10;83.35;;;44.80;;
32705;SDS011;19094;50.972;3.538;2023-02-15T02:00:36;90.72;;;46.50;;
32705;SDS011;19094;50.972;3.538;2023-02-15T02:03:02;95.78;;;48.63;;
32705;SDS011;19094;50.972;3.538;2023-02-15T02:05:29;89.00;;;47.13;;
32705;SDS011;19094;50.972;3.538;2023-02-15T02:07:57;82.63;;;46.25;;
32705;SDS011;19094;50.972;3.538;2023-02-15T02:10:25;96.00;;;47.78;;
32705;SDS011;19094;50.972;3.538;2023-02-15T02:12:52;83.15;;;45.33;;
32705;SDS011;19094;50.972;3.538;2023-02-15T02:15:22;90.10;;;46.55;;
32705;SDS011;19094;50.972;3.538;2023-02-15T02:23:24;82.97;;;45.63;;
32705;SDS011;19094;50.972;3.538;2023-02-15T02:26:07;86.95;;;46.50;;
32705;SDS011;19094;50.972;3.538;2023-02-15T02:31:43;87.95;;;46.55;;
32705;SDS011;19094;50.972;3.538;2023-02-15T02:37:17;89.65;;;46.40;;
32705;SDS011;19094;50.972;3.538;2023-02-15T02:42:58;87.95;;;46.33;;
32705;SDS011;19094;50.972;3.538;2023-02-15T02:48:08;83.72;;;44.28;;
32705;SDS011;19094;50.972;3.538;2023-02-15T02:50:38;86.32;;;45.72;;
32705;SDS011;19094;50.972;3.538;2023-02-15T02:53:05;84.38;;;44.70;;
32705;SDS011;19094;50.972;3.538;2023-02-15T02:55:31;84.65;;;45.55;;
32705;SDS011;19094;50.972;3.538;2023-02-15T03:00:44;94.88;;;47.17;;
32705;SDS011;19094;50.972;3.538;2023-02-15T03:03:25;86.00;;;46.80;;
32705;SDS011;19094;50.972;3.538;2023-02-15T03:05:57;97.43;;;49.60;;
32705;SDS011;19094;50.972;3.538;2023-02-15T03:08:26;96.53;;;50.17;;
32705;SDS011;19094;50.972;3.538;2023-02-15T03:11:02;100.13;;;51.85;;
32705;SDS011;19094;50.972;3.538;2023-02-15T03:13:29;101.53;;;51.25;;
32705;SDS011;19094;50.972;3.538;2023-02-15T03:15:55;99.65;;;51.72;;
32705;SDS011;19094;50.972;3.538;2023-02-15T03:18:46;104.65;;;51.90;;
32705;SDS011;19094;50.972;3.538;2023-02-15T03:21:18;103.53;;;51.72;;
32705;SDS011;19094;50.972;3.538;2023-02-15T03:24:09;93.82;;;49.35;;
32705;SDS011;19094;50.972;3.538;2023-02-15T03:26:35;101.60;;;50.10;;
32705;SDS011;19094;50.972;3.538;2023-02-15T03:29:04;93.35;;;48.97;;
32705;SDS011;19094;50.972;3.538;2023-02-15T03:31:32;89.28;;;46.90;;
32705;SDS011;19094;50.972;3.538;2023-02-15T03:34:03;90.90;;;47.53;;
32705;SDS011;19094;50.972;3.538;2023-02-15T03:36:37;88.38;;;47.47;;
32705;SDS011;19094;50.972;3.538;2023-02-15T03:39:22;87.05;;;45.22;;
32705;SDS011;19094;50.972;3.538;2023-02-15T03:42:13;90.97;;;46.83;;
32705;SDS011;19094;50.972;3.538;2023-02-15T03:44:59;90.20;;;45.80;;
32705;SDS011;19094;50.972;3.538;2023-02-15T03:48:04;88.05;;;43.83;;
32705;SDS011;19094;50.972;3.538;2023-02-15T03:50:26;86.43;;;44.38;;
32705;SDS011;19094;50.972;3.538;2023-02-15T03:53:14;88.47;;;46.28;;
32705;SDS011;19094;50.972;3.538;2023-02-15T03:55:46;82.18;;;43.72;;
32705;SDS011;19094;50.972;3.538;2023-02-15T03:58:13;84.45;;;44.05;;
32705;SDS011;19094;50.972;3.538;2023-02-15T04:00:58;82.13;;;43.92;;
32705;SDS011;19094;50.972;3.538;2023-02-15T04:06:44;86.80;;;45.85;;
32705;SDS011;19094;50.972;3.538;2023-02-15T04:09:09;85.40;;;43.22;;
32705;SDS011;19094;50.972;3.538;2023-02-15T04:11:54;90.05;;;45.50;;
32705;SDS011;19094;50.972;3.538;2023-02-15T04:14:19;89.13;;;45.30;;
32705;SDS011;19094;50.972;3.538;2023-02-15T04:17:07;82.35;;;44.45;;
32705;SDS011;19094;50.972;3.538;2023-02-15T04:19:33;94.57;;;47.33;;
32705;SDS011;19094;50.972;3.538;2023-02-15T04:22:18;94.90;;;47.15;;
32705;SDS011;19094;50.972;3.538;2023-02-15T04:25:02;97.65;;;47.33;;
32705;SDS011;19094;50.972;3.538;2023-02-15T04:27:34;90.70;;;45.58;;
32705;SDS011;19094;50.972;3.538;2023-02-15T04:30:00;86.40;;;46.28;;
32705;SDS011;19094;50.972;3.538;2023-02-15T04:32:26;95.65;;;47.10;;
32705;SDS011;19094;50.972;3.538;2023-02-15T04:34:52;89.70;;;46.20;;
32705;SDS011;19094;50.972;3.538;2023-02-15T04:37:18;89.50;;;45.20;;
32705;SDS011;19094;50.972;3.538;2023-02-15T04:39:43;88.90;;;45.55;;
32705;SDS011;19094;50.972;3.538;2023-02-15T04:42:09;93.68;;;46.10;;
32705;SDS011;19094;50.972;3.538;2023-02-15T04:44:35;91.00;;;46.33;;
32705;SDS011;19094;50.972;3.538;2023-02-15T04:47:00;106.00;;;50.13;;
32705;SDS011;19094;50.972;3.538;2023-02-15T04:49:26;98.35;;;48.63;;
32705;SDS011;19094;50.972;3.538;2023-02-15T04:51:51;95.53;;;48.55;;
32705;SDS011;19094;50.972;3.538;2023-02-15T04:54:17;97.00;;;47.88;;
32705;SDS011;19094;50.972;3.538;2023-02-15T04:56:43;111.65;;;52.85;;
32705;SDS011;19094;50.972;3.538;2023-02-15T04:59:12;95.40;;;48.40;;
32705;SDS011;19094;50.972;3.538;2023-02-15T05:01:38;100.50;;;49.13;;
32705;SDS011;19094;50.972;3.538;2023-02-15T05:04:04;99.60;;;49.22;;
32705;SDS011;19094;50.972;3.538;2023-02-15T05:06:29;103.75;;;48.38;;
32705;SDS011;19094;50.972;3.538;2023-02-15T05:08:55;111.03;;;51.58;;
32705;SDS011;19094;50.972;3.538;2023-02-15T05:11:23;101.18;;;49.13;;
32705;SDS011;19094;50.972;3.538;2023-02-15T05:13:50;109.53;;;48.90;;
32705;SDS011;19094;50.972;3.538;2023-02-15T05:16:16;107.93;;;50.58;;
32705;SDS011;19094;50.972;3.538;2023-02-15T05:18:42;104.32;;;49.47;;
32705;SDS011;19094;50.972;3.538;2023-02-15T05:21:08;100.93;;;48.83;;
32705;SDS011;19094;50.972;3.538;2023-02-15T05:23:34;100.03;;;46.78;;
32705;SDS011;19094;50.972;3.538;2023-02-15T05:25:59;106.70;;;49.05;;
32705;SDS011;19094;50.972;3.538;2023-02-15T05:28:44;98.45;;;47.40;;
32705;SDS011;19094;50.972;3.538;2023-02-15T05:31:10;93.93;;;44.72;;
32705;SDS011;19094;50.972;3.538;2023-02-15T05:33:41;98.07;;;46.65;;
32705;SDS011;19094;50.972;3.538;2023-02-15T05:36:08;102.50;;;46.05;;
32705;SDS011;19094;50.972;3.538;2023-02-15T05:38:34;98.78;;;46.50;;
32705;SDS011;19094;50.972;3.538;2023-02-15T05:41:02;109.20;;;48.53;;
32705;SDS011;19094;50.972;3.538;2023-02-15T05:43:29;94.35;;;45.05;;
32705;SDS011;19094;50.972;3.538;2023-02-15T05:45:55;99.65;;;46.22;;
32705;SDS011;19094;50.972;3.538;2023-02-15T05:48:22;95.40;;;44.13;;
32705;SDS011;19094;50.972;3.538;2023-02-15T05:51:08;97.93;;;46.35;;
32705;SDS011;19094;50.972;3.538;2023-02-15T05:53:38;98.45;;;44.50;;
32705;SDS011;19094;50.972;3.538;2023-02-15T05:56:04;93.30;;;44.65;;
32705;SDS011;19094;50.972;3.538;2023-02-15T05:58:33;96.15;;;45.05;;
32705;SDS011;19094;50.972;3.538;2023-02-15T06:01:07;92.75;;;44.47;;
32705;SDS011;19094;50.972;3.538;2023-02-15T06:03:37;94.82;;;44.03;;
32705;SDS011;19094;50.972;3.538;2023-02-15T06:06:03;94.13;;;45.08;;
32705;SDS011;19094;50.972;3.538;2023-02-15T06:08:30;88.53;;;44.05;;
32705;SDS011;19094;50.972;3.538;2023-02-15T06:10:56;100.03;;;44.08;;
32705;SDS011;19094;50.972;3.538;2023-02-15T06:13:22;101.18;;;46.97;;
32705;SDS011;19094;50.972;3.538;2023-02-15T06:15:47;93.80;;;44.22;;
32705;SDS011;19094;50.972;3.538;2023-02-15T06:18:13;98.30;;;46.17;;
32705;SDS011;19094;50.972;3.538;2023-02-15T06:20:39;106.20;;;46.45;;
32705;SDS011;19094;50.972;3.538;2023-02-15T06:23:04;100.95;;;48.80;;
32705;SDS011;19094;50.972;3.538;2023-02-15T06:25:30;96.40;;;45.45;;
32705;SDS011;19094;50.972;3.538;2023-02-15T06:27:56;98.90;;;45.42;;
32705;SDS011;19094;50.972;3.538;2023-02-15T06:30:21;105.03;;;46.20;;
32705;SDS011;19094;50.972;3.538;2023-02-15T06:32:47;95.43;;;43.95;;
32705;SDS011;19094;50.972;3.538;2023-02-15T06:35:13;96.03;;;44.38;;
32705;SDS011;19094;50.972;3.538;2023-02-15T06:37:38;99.00;;;45.83;;
32705;SDS011;19094;50.972;3.538;2023-02-15T06:40:04;99.53;;;45.53;;
32705;SDS011;19094;50.972;3.538;2023-02-15T06:42:31;94.88;;;44.10;;
32705;SDS011;19094;50.972;3.538;2023-02-15T06:44:56;96.57;;;46.20;;
32705;SDS011;19094;50.972;3.538;2023-02-15T06:47:22;89.68;;;43.13;;
32705;SDS011;19094;50.972;3.538;2023-02-15T06:49:48;93.10;;;45.78;;
32705;SDS011;19094;50.972;3.538;2023-02-15T06:52:13;91.93;;;43.60;;
32705;SDS011;19094;50.972;3.538;2023-02-15T06:54:39;92.45;;;42.78;;
32705;SDS011;19094;50.972;3.538;2023-02-15T06:57:05;103.03;;;44.40;;
32705;SDS011;19094;50.972;3.538;2023-02-15T06:59:30;89.22;;;42.63;;
32705;SDS011;19094;50.972;3.538;2023-02-15T07:01:56;94.03;;;42.35;;
32705;SDS011;19094;50.972;3.538;2023-02-15T07:04:22;95.38;;;44.00;;
32705;SDS011;19094;50.972;3.538;2023-02-15T07:06:47;98.63;;;44.53;;
32705;SDS011;19094;50.972;3.538;2023-02-15T07:09:13;96.75;;;44.35;;
32705;SDS011;19094;50.972;3.538;2023-02-15T07:11:39;99.65;;;44.45;;
32705;SDS011;19094;50.972;3.538;2023-02-15T07:14:23;86.63;;;41.70;;
32705;SDS011;19094;50.972;3.538;2023-02-15T07:16:48;94.15;;;42.83;;
32705;SDS011;19094;50.972;3.538;2023-02-15T07:19:14;95.20;;;42.92;;
32705;SDS011;19094;50.972;3.538;2023-02-15T07:21:39;102.38;;;45.63;;
32705;SDS011;19094;50.972;3.538;2023-02-15T07:24:05;93.00;;;44.83;;
32705;SDS011;19094;50.972;3.538;2023-02-15T07:26:31;107.43;;;46.35;;
32705;SDS011;19094;50.972;3.538;2023-02-15T07:28:57;98.85;;;44.33;;
32705;SDS011;19094;50.972;3.538;2023-02-15T07:31:23;97.85;;;46.63;;
32705;SDS011;19094;50.972;3.538;2023-02-15T07:33:49;110.03;;;45.17;;
32705;SDS011;19094;50.972;3.538;2023-02-15T07:36:14;97.45;;;46.17;;
32705;SDS011;19094;50.972;3.538;2023-02-15T07:38:40;89.05;;;43.65;;
32705;SDS011;19094;50.972;3.538;2023-02-15T07:41:08;92.20;;;43.03;;
32705;SDS011;19094;50.972;3.538;2023-02-15T07:43:36;91.57;;;43.03;;
32705;SDS011;19094;50.972;3.538;2023-02-15T07:46:04;102.65;;;45.10;;
32705;SDS011;19094;50.972;3.538;2023-02-15T07:48:32;95.68;;;44.97;;
32705;SDS011;19094;50.972;3.538;2023-02-15T07:51:02;101.35;;;45.83;;
32705;SDS011;19094;50.972;3.538;2023-02-15T07:53:30;104.55;;;45.10;;
32705;SDS011;19094;50.972;3.538;2023-02-15T07:55:59;103.45;;;45.17;;
32705;SDS011;19094;50.972;3.538;2023-02-15T07:58:29;100.32;;;44.35;;
32705;SDS011;19094;50.972;3.538;2023-02-15T08:01:14;92.65;;;42.75;;
32705;SDS011;19094;50.972;3.538;2023-02-15T08:03:40;95.95;;;44.97;;
32705;SDS011;19094;50.972;3.538;2023-02-15T08:06:06;98.00;;;43.65;;
32705;SDS011;19094;50.972;3.538;2023-02-15T08:08:35;101.40;;;46.10;;
32705;SDS011;19094;50.972;3.538;2023-02-15T08:13:56;94.68;;;45.03;;
32705;SDS011;19094;50.972;3.538;2023-02-15T08:21:31;101.80;;;43.83;;
32705;SDS011;19094;50.972;3.538;2023-02-15T08:23:58;96.90;;;42.80;;
32705;SDS011;19094;50.972;3.538;2023-02-15T08:26:24;100.80;;;44.33;;
32705;SDS011;19094;50.972;3.538;2023-02-15T08:28:51;95.10;;;42.75;;
32705;SDS011;19094;50.972;3.538;2023-02-15T08:31:17;95.13;;;44.03;;
32705;SDS011;19094;50.972;3.538;2023-02-15T08:33:44;93.68;;;43.53;;
32705;SDS011;19094;50.972;3.538;2023-02-15T08:36:12;93.78;;;43.35;;
32705;SDS011;19094;50.972;3.538;2023-02-15T08:38:40;94.80;;;42.60;;
32705;SDS011;19094;50.972;3.538;2023-02-15T08:41:11;95.45;;;44.58;;
32705;SDS011;19094;50.972;3.538;2023-02-15T08:43:40;95.80;;;42.63;;
32705;SDS011;19094;50.972;3.538;2023-02-15T08:46:07;95.15;;;44.58;;
32705;SDS011;19094;50.972;3.538;2023-02-15T08:48:33;102.75;;;44.55;;
32705;SDS011;19094;50.972;3.538;2023-02-15T08:51:03;94.45;;;45.17;;
32705;SDS011;19094;50.972;3.538;2023-02-15T08:53:31;92.80;;;42.33;;
32705;SDS011;19094;50.972;3.538;2023-02-15T08:55:57;91.38;;;42.28;;
32705;SDS011;19094;50.972;3.538;2023-02-15T08:58:23;96.05;;;42.33;;
32705;SDS011;19094;50.972;3.538;2023-02-15T09:00:50;98.13;;;41.35;;
32705;SDS011;19094;50.972;3.538;2023-02-15T09:03:16;95.65;;;41.10;;
32705;SDS011;19094;50.972;3.538;2023-02-15T09:05:41;88.65;;;39.83;;
32705;SDS011;19094;50.972;3.538;2023-02-15T09:08:07;87.90;;;39.22;;
32705;SDS011;19094;50.972;3.538;2023-02-15T09:10:33;92.30;;;39.38;;
32705;SDS011;19094;50.972;3.538;2023-02-15T09:12:58;80.95;;;37.22;;
32705;SDS011;19094;50.972;3.538;2023-02-15T09:15:24;95.07;;;40.35;;
32705;SDS011;19094;50.972;3.538;2023-02-15T09:17:50;91.90;;;41.63;;
32705;SDS011;19094;50.972;3.538;2023-02-15T09:20:15;100.32;;;43.97;;
32705;SDS011;19094;50.972;3.538;2023-02-15T09:22:41;95.72;;;42.83;;
32705;SDS011;19094;50.972;3.538;2023-02-15T09:25:07;90.07;;;40.05;;
32705;SDS011;19094;50.972;3.538;2023-02-15T09:27:33;98.00;;;41.13;;
32705;SDS011;19094;50.972;3.538;2023-02-15T09:29:58;85.03;;;38.95;;
32705;SDS011;19094;50.972;3.538;2023-02-15T09:32:24;89.13;;;38.00;;
32705;SDS011;19094;50.972;3.538;2023-02-15T09:34:50;89.72;;;39.70;;
32705;SDS011;19094;50.972;3.538;2023-02-15T09:37:15;85.35;;;37.92;;
32705;SDS011;19094;50.972;3.538;2023-02-15T09:39:42;83.05;;;38.05;;
32705;SDS011;19094;50.972;3.538;2023-02-15T09:48:01;84.68;;;36.50;;
32705;SDS011;19094;50.972;3.538;2023-02-15T09:56:36;75.47;;;35.17;;
32705;SDS011;19094;50.972;3.538;2023-02-15T09:59:24;82.97;;;36.38;;
32705;SDS011;19094;50.972;3.538;2023-02-15T10:10:33;84.88;;;37.88;;
32705;SDS011;19094;50.972;3.538;2023-02-15T10:13:26;83.43;;;36.95;;
32705;SDS011;19094;50.972;3.538;2023-02-15T10:18:43;83.40;;;36.08;;
32705;SDS011;19094;50.972;3.538;2023-02-15T10:21:23;98.93;;;38.33;;
32705;SDS011;19094;50.972;3.538;2023-02-15T10:26:45;91.85;;;36.67;;
32705;SDS011;19094;50.972;3.538;2023-02-15T10:29:23;84.50;;;35.97;;
32705;SDS011;19094;50.972;3.538;2023-02-15T10:50:52;95.32;;;38.22;;
32705;SDS011;19094;50.972;3.538;2023-02-15T11:04:52;80.22;;;37.20;;
32705;SDS011;19094;50.972;3.538;2023-02-15T11:07:37;87.07;;;37.70;;
32705;SDS011;19094;50.972;3.538;2023-02-15T11:12:53;72.47;;;35.83;;
32705;SDS011;19094;50.972;3.538;2023-02-15T11:15:39;83.50;;;36.97;;
32705;SDS011;19094;50.972;3.538;2023-02-15T11:23:18;77.15;;;36.22;;
32705;SDS011;19094;50.972;3.538;2023-02-15T11:25:46;84.43;;;37.35;;
32705;SDS011;19094;50.972;3.538;2023-02-15T11:28:22;89.43;;;36.97;;
32705;SDS011;19094;50.972;3.538;2023-02-15T11:31:12;77.25;;;36.65;;
32705;SDS011;19094;50.972;3.538;2023-02-15T11:33:45;78.28;;;37.33;;
32705;SDS011;19094;50.972;3.538;2023-02-15T11:36:16;78.45;;;36.55;;
32705;SDS011;19094;50.972;3.538;2023-02-15T11:38:46;76.53;;;34.63;;
32705;SDS011;19094;50.972;3.538;2023-02-15T11:41:18;74.43;;;35.08;;
32705;SDS011;19094;50.972;3.538;2023-02-15T11:46:17;78.72;;;34.90;;
32705;SDS011;19094;50.972;3.538;2023-02-15T11:48:44;90.53;;;37.38;;
32705;SDS011;19094;50.972;3.538;2023-02-15T11:51:14;72.07;;;35.40;;
32705;SDS011;19094;50.972;3.538;2023-02-15T11:53:42;79.18;;;36.67;;
32705;SDS011;19094;50.972;3.538;2023-02-15T11:56:16;76.15;;;37.20;;
32705;SDS011;19094;50.972;3.538;2023-02-15T11:58:50;69.32;;;33.75;;
32705;SDS011;19094;50.972;3.538;2023-02-15T12:01:30;80.70;;;36.72;;
32705;SDS011;19094;50.972;3.538;2023-02-15T12:03:59;61.38;;;28.90;;
32705;SDS011;19094;50.972;3.538;2023-02-15T12:06:28;71.07;;;30.42;;
32705;SDS011;19094;50.972;3.538;2023-02-15T12:09:09;74.45;;;32.65;;
32705;SDS011;19094;50.972;3.538;2023-02-15T12:11:40;72.78;;;35.60;;
32705;SDS011;19094;50.972;3.538;2023-02-15T12:14:07;78.05;;;34.65;;
32705;SDS011;19094;50.972;3.538;2023-02-15T12:16:40;80.30;;;34.97;;
32705;SDS011;19094;50.972;3.538;2023-02-15T12:19:09;72.05;;;34.58;;
32705;SDS011;19094;50.972;3.538;2023-02-15T12:21:53;77.28;;;35.17;;
32705;SDS011;19094;50.972;3.538;2023-02-15T12:26:45;73.68;;;35.67;;
32705;SDS011;19094;50.972;3.538;2023-02-15T12:29:50;72.20;;;34.35;;
32705;SDS011;19094;50.972;3.538;2023-02-15T12:32:22;75.60;;;34.95;;
32705;SDS011;19094;50.972;3.538;2023-02-15T12:34:51;85.60;;;36.13;;
32705;SDS011;19094;50.972;3.538;2023-02-15T12:42:22;73.90;;;34.88;;
32705;SDS011;19094;50.972;3.538;2023-02-15T12:45:32;73.55;;;35.40;;
32705;SDS011;19094;50.972;3.538;2023-02-15T12:50:39;71.00;;;36.15;;
32705;SDS011;19094;50.972;3.538;2023-02-15T12:55:33;80.88;;;37.40;;
32705;SDS011;19094;50.972;3.538;2023-02-15T12:58:06;77.20;;;36.53;;
32705;SDS011;19094;50.972;3.538;2023-02-15T13:00:32;68.33;;;34.57;;
32705;SDS011;19094;50.972;3.538;2023-02-15T13:02:59;70.22;;;33.33;;
32705;SDS011;19094;50.972;3.538;2023-02-15T13:08:12;79.63;;;35.88;;
32705;SDS011;19094;50.972;3.538;2023-02-15T13:10:52;75.85;;;35.80;;
32705;SDS011;19094;50.972;3.538;2023-02-15T13:13:21;73.53;;;34.95;;
32705;SDS011;19094;50.972;3.538;2023-02-15T13:15:51;75.30;;;35.13;;
32705;SDS011;19094;50.972;3.538;2023-02-15T13:18:29;68.30;;;34.63;;
32705;SDS011;19094;50.972;3.538;2023-02-15T13:21:04;70.43;;;34.88;;
32705;SDS011;19094;50.972;3.538;2023-02-15T13:23:48;72.18;;;34.08;;
32705;SDS011;19094;50.972;3.538;2023-02-15T13:26:19;71.13;;;36.08;;
32705;SDS011;19094;50.972;3.538;2023-02-15T13:28:48;68.70;;;35.47;;
32705;SDS011;19094;50.972;3.538;2023-02-15T13:31:19;69.18;;;35.47;;
32705;SDS011;19094;50.972;3.538;2023-02-15T13:33:52;81.75;;;37.13;;
32705;SDS011;19094;50.972;3.538;2023-02-15T13:36:30;72.00;;;35.63;;
32705;SDS011;19094;50.972;3.538;2023-02-15T13:42:13;76.68;;;36.00;;
32705;SDS011;19094;50.972;3.538;2023-02-15T13:47:27;76.03;;;36.50;;
32705;SDS011;19094;50.972;3.538;2023-02-15T13:50:07;75.13;;;35.25;;
32705;SDS011;19094;50.972;3.538;2023-02-15T13:55:44;65.93;;;34.38;;
32705;SDS011;19094;50.972;3.538;2023-02-15T14:02:08;66.65;;;34.42;;
32705;SDS011;19094;50.972;3.538;2023-02-15T14:10:03;67.07;;;35.28;;
32705;SDS011;19094;50.972;3.538;2023-02-15T14:12:49;73.03;;;34.92;;
32705;SDS011;19094;50.972;3.538;2023-02-15T14:18:19;73.15;;;36.47;;
32705;SDS011;19094;50.972;3.538;2023-02-15T14:21:01;75.50;;;35.92;;
32705;SDS011;19094;50.972;3.538;2023-02-15T14:23:43;73.28;;;34.90;;
32705;SDS011;19094;50.972;3.538;2023-02-15T14:31:32;80.68;;;35.58;;
32705;SDS011;19094;50.972;3.538;2023-02-15T14:34:03;69.77;;;34.90;;
32705;SDS011;19094;50.972;3.538;2023-02-15T14:36:29;66.78;;;35.25;;
32705;SDS011;19094;50.972;3.538;2023-02-15T14:42:15;70.95;;;35.20;;
32705;SDS011;19094;50.972;3.538;2023-02-15T14:48:55;77.45;;;37.13;;
32705;SDS011;19094;50.972;3.538;2023-02-15T14:53:15;73.40;;;35.42;;
32705;SDS011;19094;50.972;3.538;2023-02-15T14:55:47;70.50;;;36.83;;
32705;SDS011;19094;50.972;3.538;2023-02-15T14:58:29;68.68;;;35.53;;
32705;SDS011;19094;50.972;3.538;2023-02-15T15:00:55;74.05;;;37.80;;
32705;SDS011;19094;50.972;3.538;2023-02-15T15:03:31;75.53;;;37.80;;
32705;SDS011;19094;50.972;3.538;2023-02-15T15:05:57;74.80;;;37.45;;
32705;SDS011;19094;50.972;3.538;2023-02-15T15:08:28;85.78;;;39.25;;
32705;SDS011;19094;50.972;3.538;2023-02-15T15:19:04;82.70;;;37.60;;
32705;SDS011;19094;50.972;3.538;2023-02-15T15:32:41;79.45;;;37.75;;
32705;SDS011;19094;50.972;3.538;2023-02-15T15:43:31;73.75;;;37.50;;
32705;SDS011;19094;50.972;3.538;2023-02-15T15:46:15;76.32;;;36.97;;
32705;SDS011;19094;50.972;3.538;2023-02-15T15:48:47;81.72;;;38.05;;
32705;SDS011;19094;50.972;3.538;2023-02-15T15:54:12;79.25;;;38.88;;
32705;SDS011;19094;50.972;3.538;2023-02-15T15:56:51;87.10;;;38.03;;
32705;SDS011;19094;50.972;3.538;2023-02-15T15:59:24;78.72;;;36.90;;
32705;SDS011;19094;50.972;3.538;2023-02-15T16:01:51;79.70;;;38.55;;
32705;SDS011;19094;50.972;3.538;2023-02-15T16:04:28;83.43;;;39.67;;
32705;SDS011;19094;50.972;3.538;2023-02-15T16:07:03;81.40;;;36.30;;
32705;SDS011;19094;50.972;3.538;2023-02-15T16:09:38;84.22;;;39.10;;
32705;SDS011;19094;50.972;3.538;2023-02-15T16:12:04;85.80;;;41.35;;
32705;SDS011;19094;50.972;3.538;2023-02-15T16:14:42;79.10;;;37.42;;
32705;SDS011;19094;50.972;3.538;2023-02-15T16:17:17;82.75;;;37.92;;
32705;SDS011;19094;50.972;3.538;2023-02-15T16:19:48;80.95;;;38.08;;
32705;SDS011;19094;50.972;3.538;2023-02-15T16:22:19;79.72;;;38.03;;
32705;SDS011;19094;50.972;3.538;2023-02-15T16:27:45;77.57;;;37.40;;
32705;SDS011;19094;50.972;3.538;2023-02-15T16:32:47;73.65;;;36.22;;
32705;SDS011;19094;50.972;3.538;2023-02-15T16:35:14;78.65;;;37.38;;
32705;SDS011;19094;50.972;3.538;2023-02-15T16:37:41;81.18;;;36.90;;
32705;SDS011;19094;50.972;3.538;2023-02-15T16:42:48;79.90;;;38.25;;
32705;SDS011;19094;50.972;3.538;2023-02-15T16:45:16;81.20;;;38.60;;
32705;SDS011;19094;50.972;3.538;2023-02-15T16:47:45;84.95;;;38.70;;
32705;SDS011;19094;50.972;3.538;2023-02-15T16:50:17;97.28;;;42.08;;
32705;SDS011;19094;50.972;3.538;2023-02-15T16:52:58;59.90;;;30.48;;
32705;SDS011;19094;50.972;3.538;2023-02-15T16:55:25;82.07;;;38.88;;
32705;SDS011;19094;50.972;3.538;2023-02-15T16:57:57;83.32;;;39.33;;
32705;SDS011;19094;50.972;3.538;2023-02-15T17:00:26;83.85;;;36.47;;
32705;SDS011;19094;50.972;3.538;2023-02-15T17:03:06;83.80;;;38.25;;
32705;SDS011;19094;50.972;3.538;2023-02-15T17:05:32;82.88;;;38.80;;
32705;SDS011;19094;50.972;3.538;2023-02-15T17:08:23;83.50;;;38.13;;
32705;SDS011;19094;50.972;3.538;2023-02-15T17:13:38;77.10;;;36.33;;
32705;SDS011;19094;50.972;3.538;2023-02-15T17:18:58;83.57;;;38.25;;
32705;SDS011;19094;50.972;3.538;2023-02-15T17:21:32;86.35;;;37.60;;
32705;SDS011;19094;50.972;3.538;2023-02-15T17:24:02;80.63;;;38.67;;
32705;SDS011;19094;50.972;3.538;2023-02-15T17:29:10;84.97;;;40.88;;
32705;SDS011;19094;50.972;3.538;2023-02-15T17:31:48;88.90;;;40.30;;
32705;SDS011;19094;50.972;3.538;2023-02-15T17:37:13;82.60;;;38.63;;
32705;SDS011;19094;50.972;3.538;2023-02-15T17:39:48;93.95;;;41.60;;
32705;SDS011;19094;50.972;3.538;2023-02-15T17:42:13;91.15;;;41.60;;
32705;SDS011;19094;50.972;3.538;2023-02-15T17:44:40;86.85;;;40.42;;
32705;SDS011;19094;50.972;3.538;2023-02-15T17:47:06;88.60;;;39.97;;
32705;SDS011;19094;50.972;3.538;2023-02-15T17:49:32;90.68;;;39.20;;
32705;SDS011;19094;50.972;3.538;2023-02-15T17:52:02;86.03;;;40.53;;
32705;SDS011;19094;50.972;3.538;2023-02-15T17:54:28;89.78;;;41.28;;
32705;SDS011;19094;50.972;3.538;2023-02-15T17:57:13;95.25;;;42.78;;